createdAt,value
2023-02-03T00:01:46.550Z,13.444816053511706
2023-02-03T00:08:08.057Z,13.88628762541806
2023-02-03T00:14:29.148Z,13.096989966555183
2023-02-03T00:20:50.597Z,11.775919732441471
2023-02-03T00:27:11.360Z,10.896321070234114
2023-02-03T00:33:42.085Z,11.605351170568563
2023-02-03T00:40:03.385Z,10.448160535117056
2023-02-03T00:46:24.669Z,10.882943143812708
2023-02-03T00:56:51.862Z,9.565217391304348
2023-02-03T01:03:13.073Z,9.725752508361204
2023-02-03T01:09:34.732Z,8.478260869565217
2023-02-03T01:15:56.282Z,7.7725752508361206
2023-02-03T01:22:18.347Z,6.966555183946488
2023-02-03T01:34:54.951Z,6.287625418060201
2023-02-03T01:47:19.141Z,6.1806020066889635
2023-02-03T01:53:40.026Z,8.163879598662207
2023-02-03T02:00:01.614Z,7.822742474916388
2023-02-03T02:07:29.833Z,9.34448160535117
2023-02-03T02:16:33.657Z,8.976588628762542
2023-02-03T02:23:28.795Z,9.34448160535117
2023-02-03T02:29:50.058Z,9.013377926421406
2023-02-03T02:36:12.203Z,8.695652173913043
2023-02-03T02:42:33.700Z,8.652173913043478
2023-02-03T02:48:55.349Z,8.006688963210703
2023-02-03T02:55:16.673Z,8.076923076923077
2023-02-03T03:01:38.226Z,6.461538461538462
2023-02-03T03:07:59.281Z,5.8996655518394645
2023-02-03T03:18:53.518Z,4.575250836120401
2023-02-03T03:29:54.742Z,5.622073578595318
2023-02-03T03:42:21.780Z,5.622073578595318
2023-02-03T03:54:20.581Z,6.193979933110368
2023-02-03T04:06:32.567Z,6.464882943143813
2023-02-03T04:12:54.237Z,7.411371237458194
2023-02-03T04:19:17.026Z,7.20066889632107
2023-02-03T04:25:38.583Z,7.8595317725752505
2023-02-03T04:32:59.948Z,7.585284280936455
2023-02-03T04:44:06.445Z,8.394648829431437
2023-02-03T04:50:28.030Z,8.133779264214047
2023-02-03T04:56:59.948Z,7.618729096989966
2023-02-03T05:03:21.497Z,7.45819397993311
2023-02-03T05:11:51.758Z,7.6755852842809364
2023-02-03T05:23:38.848Z,7.3244147157190636
2023-02-03T05:29:59.458Z,7.645484949832776
2023-02-03T05:36:20.770Z,6.682274247491639
2023-02-03T05:42:41.522Z,6.444816053511706
2023-02-03T05:53:22.092Z,7.478260869565218
2023-02-03T05:59:42.680Z,6.384615384615385
2023-02-03T06:06:04.222Z,6.381270903010034
2023-02-03T06:12:26.463Z,6.127090301003345
2023-02-03T06:18:49.313Z,6.1003344481605355
2023-02-03T06:25:27.679Z,7.464882943143813
2023-02-03T06:31:49.772Z,7.2842809364548495
2023-02-03T06:43:18.827Z,6.070234113712375
2023-02-03T06:53:38.533Z,6.7558528428093645
2023-02-03T07:00:01.609Z,6.565217391304348
2023-02-03T07:09:58.548Z,5.1638795986622075
2023-02-03T07:16:23.570Z,4.6923076923076925
2023-02-03T07:25:08.328Z,5.1638795986622075
2023-02-03T07:31:31.434Z,5.421404682274248
2023-02-03T07:42:28.716Z,5.2441471571906355
2023-02-03T08:02:05.700Z,5.1237458193979935
2023-02-03T08:08:27.823Z,5.478260869565218
2023-02-03T08:20:37.976Z,5.688963210702341
2023-02-03T08:26:59.481Z,6.270903010033445
2023-02-03T08:33:21.505Z,5.3879598662207355
2023-02-03T08:39:44.894Z,5.471571906354515
2023-02-03T08:46:09.735Z,5.722408026755853
2023-02-03T08:52:34.242Z,4.591973244147157
2023-02-03T08:58:57.597Z,5.785953177257525
2023-02-03T09:07:32.938Z,4.996655518394649
2023-02-03T09:17:50.164Z,5.538461538461538
2023-02-03T09:24:14.504Z,4.207357859531773
2023-02-03T09:30:39.155Z,4.702341137123746
2023-02-03T09:37:02.869Z,3.5652173913043477
2023-02-03T09:43:27.146Z,2.8160535117056855
2023-02-03T09:49:51.551Z,4.806020066889632
2023-02-03T09:56:16.350Z,5.301003344481606
2023-02-03T10:05:39.148Z,5.769230769230769
2023-02-03T10:12:03.628Z,6.086956521739131
2023-02-03T10:18:27.795Z,6.177257525083612
2023-02-03T10:24:52.142Z,7.40133779264214
2023-02-03T10:31:16.806Z,9.692307692307692
2023-02-03T10:37:40.951Z,8.856187290969899
2023-02-03T10:46:43.442Z,10.919732441471572
2023-02-03T10:58:04.278Z,10.478260869565217
2023-02-03T11:04:28.369Z,8.33779264214047
2023-02-03T11:10:51.821Z,10.779264214046822
2023-02-03T11:17:32.432Z,9.003344481605351
2023-02-03T11:33:47.658Z,8.963210702341136
2023-02-03T11:40:12.369Z,6.959866220735786
2023-02-03T11:46:37.094Z,9.578595317725753
2023-02-03T11:53:00.673Z,6.086956521739131
2023-02-03T12:00:13.117Z,7.739130434782608
2023-02-03T12:06:37.048Z,7.605351170568562
2023-02-03T12:13:01.120Z,6.190635451505017
2023-02-03T12:19:25.703Z,6.147157190635451
2023-02-03T12:25:49.683Z,6.608695652173913
2023-02-03T12:32:14.397Z,6.896321070234114
2023-02-03T12:41:09.414Z,7.555183946488294
2023-02-03T12:49:22.967Z,5.976588628762542
2023-02-03T12:55:47.143Z,6.280936454849498
2023-02-03T13:03:10.904Z,6.327759197324415
2023-02-03T13:11:10.088Z,5.230769230769231
2023-02-03T13:23:13.401Z,4.882943143812709
2023-02-03T13:29:37.630Z,5.254180602006689
2023-02-03T13:37:17.853Z,8.193979933110368
2023-02-03T13:43:40.991Z,6.491638795986622
2023-02-03T13:50:04.695Z,8.23076923076923
2023-02-03T13:56:29.331Z,11.391304347826088
2023-02-03T14:02:53.321Z,9.74581939799331
2023-02-03T14:09:17.630Z,6.842809364548495
2023-02-03T14:17:41.115Z,6.086956521739131
2023-02-03T14:25:11.946Z,5.806020066889632
2023-02-03T14:31:35.218Z,5.230769230769231
2023-02-03T14:40:52.471Z,6.882943143812709
2023-02-03T14:47:15.692Z,6.511705685618729
2023-02-03T14:53:39.856Z,10.093645484949834
2023-02-03T15:00:03.640Z,11.14046822742475
2023-02-03T15:06:28.000Z,10.755852842809364
2023-02-03T15:18:10.164Z,5.933110367892977
2023-02-03T15:24:33.263Z,6.6521739130434785
2023-02-03T15:30:57.313Z,7.280936454849498
2023-02-03T15:37:20.681Z,5.782608695652174
2023-02-03T15:43:43.789Z,5.501672240802676
2023-02-03T15:50:07.465Z,5.986622073578595
2023-02-03T15:56:31.353Z,6.872909698996655
2023-02-03T16:02:53.915Z,8.270903010033445
2023-02-03T16:09:14.560Z,8.678929765886288
2023-02-03T16:15:35.850Z,10.966555183946488
2023-02-03T16:26:42.025Z,11.545150501672241
2023-02-03T16:33:02.519Z,10.2876254180602
2023-02-03T16:43:26.881Z,12.408026755852843
2023-02-03T16:49:47.867Z,11.648829431438127
2023-02-03T16:56:08.545Z,11.588628762541806
2023-02-03T17:10:05.917Z,9.377926421404682
2023-02-03T17:16:27.332Z,9.180602006688963
2023-02-03T17:22:48.756Z,8.705685618729097
2023-02-03T17:33:39.000Z,12.474916387959865
2023-02-03T17:59:37.435Z,10.304347826086957
2023-02-03T18:05:59.180Z,10.7123745819398
2023-02-03T18:12:20.100Z,10.23076923076923
2023-02-03T18:19:55.820Z,18.7190635451505
2023-02-03T18:26:17.218Z,19.010033444816052
2023-02-03T18:37:12.769Z,16.70903010033445
2023-02-03T18:43:34.534Z,14.82943143812709
2023-02-03T18:49:55.831Z,16.65886287625418
2023-02-03T18:56:17.573Z,14.31772575250836
2023-02-03T19:02:42.247Z,15.040133779264215
2023-02-03T19:09:05.481Z,12.963210702341136
2023-02-03T19:15:28.715Z,15.779264214046822
2023-02-03T19:21:51.241Z,17.264214046822744
2023-02-03T19:33:50.816Z,15.872909698996656
2023-02-03T19:40:16.749Z,17.110367892976587
2023-02-03T19:46:42.752Z,14.966555183946488
2023-02-03T19:53:05.858Z,13.471571906354516
2023-02-03T19:59:29.786Z,12.324414715719064
2023-02-03T20:05:55.375Z,12.324414715719064
2023-02-03T20:12:19.007Z,14.528428093645484
2023-02-03T20:18:40.566Z,12.76923076923077
2023-02-03T20:25:03.327Z,12.882943143812708
2023-02-03T20:31:25.841Z,13.782608695652174
2023-02-03T20:37:49.124Z,13.31772575250836
2023-02-03T20:45:20.949Z,16.361204013377925
2023-02-03T20:51:44.888Z,12.528428093645484
2023-02-03T20:58:06.456Z,11.364548494983278
2023-02-03T21:04:28.243Z,11.715719063545151
2023-02-03T21:10:49.848Z,11.143812709030101
2023-02-03T21:17:12.820Z,10.949832775919733
2023-02-03T21:28:44.463Z,9.414715719063546
2023-02-03T21:41:04.849Z,12.090301003344482
2023-02-03T21:47:28.145Z,16.705685618729095
2023-02-03T21:53:54.573Z,13.678929765886288
2023-02-03T22:00:22.935Z,13.187290969899665
2023-02-03T22:09:31.794Z,11.819397993311037
2023-02-03T22:15:55.464Z,14.361204013377927
2023-02-03T22:22:19.614Z,11.421404682274247
2023-02-03T22:28:45.479Z,9.408026755852843
2023-02-03T22:35:12.120Z,8.956521739130435
2023-02-03T22:47:31.339Z,6.785953177257525
2023-02-03T22:53:58.121Z,7.759197324414716
2023-02-03T23:00:27.405Z,6.408026755852843
2023-02-03T23:06:52.231Z,4.518394648829432
2023-02-03T23:13:18.086Z,5.167224080267559
2023-02-03T23:19:42.946Z,3.511705685618729
2023-02-03T23:26:04.193Z,3.9498327759197323
2023-02-03T23:32:25.935Z,3.7123745819397995
2023-02-03T23:38:47.715Z,2.939799331103679
2023-02-03T23:45:09.149Z,3.3645484949832776
2023-02-03T23:52:23.556Z,2.5953177257525084
